createdAt,value
2023-02-13T00:00:40.247Z,4.70
2023-02-13T00:03:07.536Z,4.70
2023-02-13T00:05:34.942Z,4.80
2023-02-13T00:08:02.275Z,4.80
2023-02-13T00:10:29.682Z,4.70
2023-02-13T00:12:56.963Z,4.70
2023-02-13T00:15:24.347Z,4.70
2023-02-13T00:17:51.635Z,4.90
2023-02-13T00:20:18.988Z,4.90
2023-02-13T00:22:46.273Z,4.80
2023-02-13T00:25:13.655Z,4.80
2023-02-13T00:27:40.956Z,4.80
2023-02-13T00:30:09.047Z,4.80
2023-02-13T00:32:36.353Z,4.80
2023-02-13T00:35:03.803Z,4.80
2023-02-13T00:37:31.168Z,4.90
2023-02-13T00:39:58.498Z,4.90
2023-02-13T00:42:26.644Z,5.00
2023-02-13T00:44:54.738Z,5.00
2023-02-13T00:47:23.758Z,5.00
2023-02-13T00:49:51.117Z,5.00
2023-02-13T00:52:18.407Z,5.00
2023-02-13T00:54:47.314Z,5.10
2023-02-13T00:57:14.617Z,5.10
2023-02-13T00:59:43.156Z,5.00
2023-02-13T01:02:10.478Z,5.00
2023-02-13T01:04:37.841Z,5.10
2023-02-13T01:07:05.143Z,5.00
2023-02-13T01:09:32.503Z,5.10
2023-02-13T01:12:00.084Z,5.20
2023-02-13T01:14:27.542Z,5.40
2023-02-13T01:16:56.067Z,5.50
2023-02-13T01:19:23.427Z,5.60
2023-02-13T01:21:52.663Z,5.70
2023-02-13T01:24:19.990Z,5.70
2023-02-13T01:26:47.264Z,5.70
2023-02-13T01:29:14.864Z,5.70
2023-02-13T01:31:42.236Z,5.70
2023-02-13T01:34:09.652Z,5.60
2023-02-13T01:36:36.941Z,5.60
2023-02-13T01:39:04.342Z,5.60
2023-02-13T01:41:31.707Z,5.60
2023-02-13T01:44:01.482Z,5.60
2023-02-13T01:46:35.853Z,5.60
2023-02-13T01:49:18.749Z,5.60
2023-02-13T01:51:49.528Z,5.70
2023-02-13T01:54:23.265Z,5.70
2023-02-13T01:56:56.941Z,5.80
2023-02-13T01:59:33.134Z,5.80
2023-02-13T02:02:02.580Z,5.70
2023-02-13T02:04:34.064Z,5.80
2023-02-13T02:07:27.491Z,5.90
2023-02-13T02:10:09.114Z,5.90
2023-02-13T02:12:46.649Z,5.90
2023-02-13T02:15:14.313Z,5.90
2023-02-13T02:17:41.588Z,5.90
2023-02-13T02:20:46.938Z,5.90
2023-02-13T02:23:51.295Z,6.00
2023-02-13T02:26:45.676Z,6.00
2023-02-13T02:29:31.162Z,6.00
2023-02-13T02:32:37.227Z,6.00
2023-02-13T02:35:26.916Z,6.00
2023-02-13T02:38:46.294Z,6.00
2023-02-13T02:41:43.454Z,6.00
2023-02-13T02:44:30.007Z,5.90
2023-02-13T02:47:29.580Z,6.00
2023-02-13T02:50:31.529Z,6.00
2023-02-13T02:53:25.362Z,5.90
2023-02-13T02:56:07.253Z,6.00
2023-02-13T02:59:10.750Z,6.00
2023-02-13T03:01:57.658Z,6.00
2023-02-13T03:04:58.405Z,6.00
2023-02-13T03:07:27.034Z,6.00
2023-02-13T03:10:16.907Z,6.00
2023-02-13T03:13:14.382Z,6.00
2023-02-13T03:16:02.965Z,6.00
2023-02-13T03:18:51.698Z,6.00
2023-02-13T03:22:09.028Z,6.00
2023-02-13T03:25:30.219Z,6.00
2023-02-13T03:28:33.943Z,6.00
2023-02-13T03:31:53.992Z,6.00
2023-02-13T03:34:25.361Z,5.90
2023-02-13T03:37:21.463Z,5.80
2023-02-13T03:40:05.660Z,5.90
2023-02-13T03:42:55.302Z,5.80
2023-02-13T03:45:49.318Z,5.80
2023-02-13T03:48:38.706Z,5.80
2023-02-13T03:51:08.366Z,5.80
2023-02-13T03:53:39.919Z,5.80
2023-02-13T03:56:27.780Z,5.80
2023-02-13T03:59:15.978Z,5.80
2023-02-13T04:02:13.519Z,5.70
2023-02-13T04:04:51.056Z,5.70
2023-02-13T04:07:30.765Z,5.70
2023-02-13T04:10:02.549Z,5.70
2023-02-13T04:12:55.526Z,5.70
2023-02-13T04:15:34.805Z,5.70
2023-02-13T04:18:17.854Z,5.70
2023-02-13T04:20:45.290Z,5.70
2023-02-13T04:23:13.032Z,5.70
2023-02-13T04:25:43.096Z,5.70
2023-02-13T04:28:10.507Z,5.60
2023-02-13T04:30:37.884Z,5.70
2023-02-13T04:33:05.293Z,5.70
2023-02-13T04:35:32.610Z,5.70
2023-02-13T04:37:59.871Z,5.70
2023-02-13T04:40:27.218Z,5.70
2023-02-13T04:42:54.506Z,5.60
2023-02-13T04:45:21.999Z,5.60
2023-02-13T04:47:53.969Z,5.60
2023-02-13T04:50:22.473Z,5.60
2023-02-13T04:52:54.536Z,5.60
2023-02-13T04:55:22.652Z,5.60
2023-02-13T04:57:53.290Z,5.60
2023-02-13T05:00:22.518Z,5.60
2023-02-13T05:02:50.047Z,5.50
2023-02-13T05:05:18.037Z,5.50
2023-02-13T05:07:45.302Z,5.50
2023-02-13T05:10:13.028Z,5.50
2023-02-13T05:12:40.553Z,5.50
2023-02-13T05:15:08.960Z,5.50
2023-02-13T05:17:36.262Z,5.50
2023-02-13T05:20:03.730Z,5.50
2023-02-13T05:22:49.820Z,5.50
2023-02-13T05:25:17.271Z,5.50
2023-02-13T05:27:44.617Z,5.50
2023-02-13T05:30:13.006Z,5.50
2023-02-13T05:32:42.433Z,5.50
2023-02-13T05:35:09.996Z,5.50
2023-02-13T05:37:37.314Z,5.50
2023-02-13T05:40:05.123Z,5.50
2023-02-13T05:42:32.415Z,5.50
2023-02-13T05:44:59.708Z,5.50
2023-02-13T05:47:27.055Z,5.50
2023-02-13T05:49:54.375Z,5.50
2023-02-13T05:52:21.902Z,5.50
2023-02-13T05:54:49.348Z,5.50
2023-02-13T05:57:16.852Z,5.50
2023-02-13T05:59:44.299Z,5.50
2023-02-13T06:02:11.740Z,5.50
2023-02-13T06:04:39.760Z,5.40
2023-02-13T06:07:07.060Z,5.50
2023-02-13T06:09:34.422Z,5.50
2023-02-13T06:12:01.685Z,5.50
2023-02-13T06:14:29.084Z,5.50
2023-02-13T06:16:56.439Z,5.50
2023-02-13T06:19:23.763Z,5.50
2023-02-13T06:21:51.051Z,5.50
2023-02-13T06:24:18.422Z,5.50
2023-02-13T06:26:45.796Z,5.50
2023-02-13T06:29:13.069Z,5.40
2023-02-13T06:31:41.004Z,5.50
2023-02-13T06:34:08.322Z,5.50
2023-02-13T06:36:37.558Z,5.50
2023-02-13T06:39:05.238Z,5.50
2023-02-13T06:41:32.583Z,5.50
2023-02-13T06:43:59.851Z,5.50
2023-02-13T06:46:27.231Z,5.40
2023-02-13T06:48:54.649Z,5.50
2023-02-13T06:51:21.952Z,5.50
2023-02-13T06:53:49.208Z,5.50
2023-02-13T06:56:16.780Z,5.50
2023-02-13T06:58:44.089Z,5.50
2023-02-13T07:01:11.507Z,5.50
2023-02-13T07:03:38.786Z,5.50
2023-02-13T07:06:06.377Z,5.50
2023-02-13T07:08:33.918Z,5.50
2023-02-13T07:11:01.214Z,5.50
2023-02-13T07:13:28.463Z,5.50
2023-02-13T07:15:58.100Z,5.50
2023-02-13T07:18:25.394Z,5.50
2023-02-13T07:20:52.728Z,5.50
2023-02-13T07:23:19.982Z,5.50
2023-02-13T07:25:47.711Z,5.50
2023-02-13T07:28:15.127Z,5.50
2023-02-13T07:30:42.527Z,5.60
2023-02-13T07:33:12.169Z,5.60
2023-02-13T07:35:47.207Z,5.70
2023-02-13T07:38:14.731Z,5.70
2023-02-13T07:40:42.191Z,5.70
2023-02-13T07:43:09.868Z,5.60
2023-02-13T07:45:37.197Z,5.70
2023-02-13T07:48:04.618Z,5.60
2023-02-13T07:50:32.378Z,5.70
2023-02-13T07:53:01.487Z,5.70
2023-02-13T07:55:30.258Z,5.70
2023-02-13T07:58:00.097Z,5.70
2023-02-13T08:00:27.516Z,5.80
2023-02-13T08:02:54.849Z,5.80
2023-02-13T08:05:22.168Z,5.80
2023-02-13T08:07:49.436Z,5.80
2023-02-13T08:10:39.803Z,5.90
2023-02-13T08:13:08.920Z,5.80
2023-02-13T08:15:36.409Z,5.80
2023-02-13T08:18:03.868Z,5.90
2023-02-13T08:20:31.435Z,5.90
2023-02-13T08:23:06.634Z,5.90
2023-02-13T08:25:34.221Z,5.90
2023-02-13T08:28:01.667Z,6.00
2023-02-13T08:30:29.213Z,6.00
2023-02-13T08:32:56.593Z,6.00
2023-02-13T08:35:26.956Z,6.10
2023-02-13T08:37:54.332Z,6.00
2023-02-13T08:40:23.497Z,6.00
2023-02-13T08:42:52.731Z,6.10
2023-02-13T08:45:20.260Z,6.20
2023-02-13T08:47:47.534Z,6.20
2023-02-13T08:50:14.917Z,6.30
2023-02-13T08:52:42.350Z,6.30
2023-02-13T08:55:09.629Z,6.40
2023-02-13T08:57:36.988Z,6.40
2023-02-13T09:00:06.014Z,6.50
2023-02-13T09:02:33.428Z,6.60
2023-02-13T09:05:00.794Z,6.60
2023-02-13T09:07:28.071Z,6.60
2023-02-13T09:09:55.385Z,6.60
2023-02-13T09:12:22.664Z,6.70
2023-02-13T09:14:49.986Z,6.60
2023-02-13T09:17:19.015Z,6.60
2023-02-13T09:19:47.312Z,6.70
2023-02-13T09:22:17.170Z,6.70
2023-02-13T09:24:44.606Z,6.80
2023-02-13T09:27:12.729Z,6.90
2023-02-13T09:29:40.156Z,7.00
2023-02-13T09:32:07.570Z,7.10
2023-02-13T09:34:35.116Z,7.10
2023-02-13T09:37:02.420Z,7.20
2023-02-13T09:39:29.690Z,7.20
2023-02-13T09:41:58.482Z,7.40
2023-02-13T09:44:42.178Z,7.40
2023-02-13T09:47:26.544Z,7.50
2023-02-13T09:49:58.390Z,7.50
2023-02-13T09:52:32.224Z,7.60
2023-02-13T09:55:00.556Z,7.60
2023-02-13T09:57:36.676Z,7.80
2023-02-13T10:00:33.170Z,7.80
2023-02-13T10:03:19.578Z,7.80
2023-02-13T10:05:57.880Z,7.70
2023-02-13T10:08:41.724Z,7.80
2023-02-13T10:11:59.053Z,7.80
2023-02-13T10:14:53.580Z,7.80
2023-02-13T10:17:26.832Z,7.80
2023-02-13T10:20:15.743Z,7.80
2023-02-13T10:22:52.986Z,7.70
2023-02-13T10:25:25.426Z,7.80
2023-02-13T10:28:15.639Z,7.90
2023-02-13T10:30:56.738Z,8.10
2023-02-13T10:33:34.719Z,8.30
2023-02-13T10:36:32.694Z,8.40
2023-02-13T10:39:29.504Z,8.60
2023-02-13T10:42:41.504Z,8.60
2023-02-13T10:45:30.045Z,8.70
2023-02-13T10:48:12.287Z,8.70
2023-02-13T10:50:46.344Z,8.70
2023-02-13T10:53:50.084Z,8.60
2023-02-13T10:56:30.835Z,8.70
2023-02-13T10:59:29.426Z,8.70
2023-02-13T11:02:02.383Z,8.70
2023-02-13T11:04:30.291Z,8.50
2023-02-13T11:07:03.126Z,8.40
2023-02-13T11:09:39.865Z,8.40
2023-02-13T11:12:32.786Z,8.20
2023-02-13T11:15:05.794Z,8.20
2023-02-13T11:17:37.679Z,8.10
2023-02-13T11:20:08.502Z,8.10
2023-02-13T11:22:39.519Z,8.20
2023-02-13T11:25:18.312Z,8.30
2023-02-13T11:27:47.822Z,8.10
2023-02-13T11:30:44.455Z,8.10
2023-02-13T11:33:37.949Z,8.00
2023-02-13T11:36:13.625Z,8.20
2023-02-13T11:38:41.264Z,8.30
2023-02-13T11:41:12.407Z,8.30
2023-02-13T11:44:04.290Z,8.40
2023-02-13T11:46:46.410Z,8.60
2023-02-13T11:49:28.361Z,8.60
2023-02-13T11:51:58.055Z,8.70
2023-02-13T11:54:42.146Z,8.70
2023-02-13T11:57:30.921Z,8.80
2023-02-13T11:59:59.771Z,8.70
2023-02-13T12:02:29.469Z,8.80
2023-02-13T12:05:35.238Z,8.80
2023-02-13T12:08:02.566Z,8.70
2023-02-13T12:10:36.943Z,8.50
2023-02-13T12:13:21.116Z,8.50
2023-02-13T12:15:59.161Z,8.50
2023-02-13T12:18:29.637Z,8.70
2023-02-13T12:21:28.857Z,8.70
2023-02-13T12:24:22.327Z,8.70
2023-02-13T12:27:13.032Z,8.70
2023-02-13T12:30:12.789Z,8.60
2023-02-13T12:33:17.722Z,8.70
2023-02-13T12:36:10.700Z,8.50
2023-02-13T12:39:14.398Z,8.50
2023-02-13T12:42:09.903Z,8.40
2023-02-13T12:45:20.583Z,8.60
2023-02-13T12:48:04.190Z,8.60
2023-02-13T12:51:04.444Z,8.50
2023-02-13T12:54:07.788Z,8.60
2023-02-13T12:57:18.894Z,8.60
2023-02-13T13:00:34.988Z,8.70
2023-02-13T13:03:34.813Z,8.80
2023-02-13T13:06:19.602Z,8.70
2023-02-13T13:09:41.465Z,8.70
2023-02-13T13:12:29.174Z,8.70
2023-02-13T13:15:05.817Z,8.60
2023-02-13T13:17:58.803Z,8.60
2023-02-13T13:20:52.123Z,8.70
2023-02-13T13:24:00.466Z,8.70
2023-02-13T13:26:43.688Z,8.70
2023-02-13T13:29:17.458Z,8.70
2023-02-13T13:31:59.762Z,8.60
2023-02-13T13:34:27.827Z,8.50
2023-02-13T13:37:20.026Z,8.50
2023-02-13T13:40:00.638Z,8.40
2023-02-13T13:42:51.686Z,8.60
2023-02-13T13:45:27.966Z,8.60
2023-02-13T13:48:18.454Z,8.60
2023-02-13T13:50:46.389Z,8.60
2023-02-13T13:53:23.910Z,8.70
2023-02-13T13:56:04.990Z,8.50
2023-02-13T13:58:46.282Z,8.40
2023-02-13T14:01:31.739Z,8.30
2023-02-13T14:04:02.287Z,8.20
2023-02-13T14:07:12.314Z,8.10
2023-02-13T14:09:43.136Z,8.00
2023-02-13T14:12:45.500Z,8.00
2023-02-13T14:15:59.040Z,7.90
2023-02-13T14:18:27.218Z,7.90
2023-02-13T14:20:58.775Z,7.80
2023-02-13T14:23:52.623Z,7.60
2023-02-13T14:26:37.901Z,7.60
2023-02-13T14:29:28.874Z,7.50
2023-02-13T14:32:08.441Z,7.30
2023-02-13T14:34:39.039Z,7.30
2023-02-13T14:37:47.244Z,7.30
2023-02-13T14:40:50.484Z,7.30
2023-02-13T14:43:37.085Z,7.20
2023-02-13T14:46:27.558Z,7.20
2023-02-13T14:49:03.098Z,7.20
2023-02-13T14:52:03.093Z,7.30
2023-02-13T14:54:42.146Z,7.20
2023-02-13T14:57:21.686Z,7.10
2023-02-13T14:59:57.866Z,7.10
2023-02-13T15:02:32.044Z,7.10
2023-02-13T15:05:11.955Z,7.10
2023-02-13T15:07:46.084Z,7.00
2023-02-13T15:10:39.372Z,7.00
2023-02-13T15:13:18.535Z,7.00
2023-02-13T15:15:52.166Z,6.80
2023-02-13T15:18:24.286Z,6.90
2023-02-13T15:20:53.514Z,6.80
2023-02-13T15:23:23.842Z,6.70
2023-02-13T15:26:06.324Z,6.70
2023-02-13T15:28:35.291Z,6.70
2023-02-13T15:31:18.973Z,6.60
2023-02-13T15:33:51.024Z,6.60
2023-02-13T15:36:25.478Z,6.50
2023-02-13T15:39:09.764Z,6.60
2023-02-13T15:41:44.019Z,6.50
2023-02-13T15:44:19.689Z,6.40
2023-02-13T15:46:48.786Z,6.40
2023-02-13T15:49:21.909Z,6.40
2023-02-13T15:51:50.328Z,6.40
2023-02-13T15:54:32.385Z,6.50
2023-02-13T15:57:04.044Z,6.40
2023-02-13T15:59:38.454Z,6.30
2023-02-13T16:02:12.818Z,6.30
2023-02-13T16:04:41.673Z,6.20
2023-02-13T16:07:13.764Z,6.20
2023-02-13T16:09:41.220Z,6.20
2023-02-13T16:12:18.319Z,6.10
2023-02-13T16:14:53.865Z,6.10
2023-02-13T16:17:37.384Z,6.10
2023-02-13T16:20:17.881Z,6.10
2023-02-13T16:22:48.440Z,6.00
2023-02-13T16:25:36.358Z,6.00
2023-02-13T16:28:17.137Z,6.00
2023-02-13T16:31:09.844Z,6.00
2023-02-13T16:33:42.130Z,6.00
2023-02-13T16:36:19.883Z,5.90
2023-02-13T16:38:48.979Z,5.90
2023-02-13T16:41:19.310Z,5.90
2023-02-13T16:43:54.463Z,5.90
2023-02-13T16:46:45.134Z,6.00
2023-02-13T16:49:19.582Z,5.90
2023-02-13T16:52:08.534Z,5.90
2023-02-13T16:54:57.390Z,5.90
2023-02-13T16:57:33.749Z,5.80
2023-02-13T17:00:28.211Z,5.80
2023-02-13T17:02:55.487Z,5.80
2023-02-13T17:05:28.186Z,5.70
2023-02-13T17:08:01.397Z,5.80
2023-02-13T17:10:37.627Z,5.70
2023-02-13T17:13:17.667Z,5.70
2023-02-13T17:15:47.171Z,5.70
2023-02-13T17:18:14.787Z,5.60
2023-02-13T17:20:44.069Z,5.70
2023-02-13T17:23:34.634Z,5.70
2023-02-13T17:26:01.982Z,5.70
2023-02-13T17:28:30.414Z,5.70
2023-02-13T17:30:59.778Z,5.70
2023-02-13T17:33:34.701Z,5.60
2023-02-13T17:36:02.081Z,5.60
2023-02-13T17:38:29.335Z,5.60
2023-02-13T17:40:57.010Z,5.60
2023-02-13T17:43:26.938Z,5.70
2023-02-13T17:45:54.350Z,5.60
2023-02-13T17:48:21.777Z,5.70
2023-02-13T17:50:50.426Z,5.60
2023-02-13T17:53:31.754Z,5.70
2023-02-13T17:55:59.287Z,5.60
2023-02-13T17:58:26.685Z,5.60
2023-02-13T18:00:54.365Z,5.60
2023-02-13T18:03:22.360Z,5.60
2023-02-13T18:05:50.137Z,5.60
2023-02-13T18:08:17.517Z,5.60
2023-02-13T18:10:44.848Z,5.60
2023-02-13T18:13:12.289Z,5.60
2023-02-13T18:15:43.352Z,5.60
2023-02-13T18:18:11.966Z,5.50
2023-02-13T18:20:39.344Z,5.50
2023-02-13T18:23:07.232Z,5.50
2023-02-13T18:25:35.102Z,5.40
2023-02-13T18:28:02.455Z,5.40
2023-02-13T18:30:29.851Z,5.40
2023-02-13T18:32:59.029Z,5.40
2023-02-13T18:35:26.506Z,5.40
2023-02-13T18:37:53.886Z,5.50
2023-02-13T18:40:21.488Z,5.50
2023-02-13T18:42:51.089Z,5.50
2023-02-13T18:45:18.863Z,5.50
2023-02-13T18:47:46.104Z,5.50
2023-02-13T18:50:14.044Z,5.50
2023-02-13T18:52:41.415Z,5.50
2023-02-13T18:55:09.553Z,5.50
2023-02-13T18:57:36.951Z,5.40
2023-02-13T19:00:05.803Z,5.40
2023-02-13T19:02:33.492Z,5.40
2023-02-13T19:05:01.409Z,5.40
2023-02-13T19:07:29.027Z,5.40
2023-02-13T19:09:56.467Z,5.30
2023-02-13T19:12:24.034Z,5.30
2023-02-13T19:14:51.371Z,5.30
2023-02-13T19:17:18.784Z,5.30
2023-02-13T19:19:49.066Z,5.20
2023-02-13T19:22:16.830Z,5.20
2023-02-13T19:24:44.298Z,5.20
2023-02-13T19:27:11.656Z,5.20
2023-02-13T19:29:39.192Z,5.20
2023-02-13T19:32:06.684Z,5.20
2023-02-13T19:34:34.063Z,5.20
2023-02-13T19:37:01.537Z,5.20
2023-02-13T19:39:28.985Z,5.20
2023-02-13T19:41:56.917Z,5.20
2023-02-13T19:44:24.296Z,5.20
2023-02-13T19:46:51.774Z,5.20
2023-02-13T19:49:21.031Z,5.10
2023-02-13T19:51:48.434Z,5.10
2023-02-13T19:54:15.791Z,5.00
2023-02-13T19:56:43.802Z,5.20
2023-02-13T19:59:13.542Z,5.30
2023-02-13T20:01:42.990Z,5.30
2023-02-13T20:04:11.068Z,5.30
2023-02-13T20:06:38.845Z,5.20
2023-02-13T20:09:12.136Z,5.10
2023-02-13T20:11:41.416Z,5.10
2023-02-13T20:14:14.611Z,5.10
2023-02-13T20:16:42.987Z,5.10
2023-02-13T20:19:11.753Z,5.00
2023-02-13T20:21:41.421Z,5.00
2023-02-13T20:24:10.097Z,5.00
2023-02-13T20:26:37.805Z,5.00
2023-02-13T20:29:05.344Z,5.00
2023-02-13T20:31:34.323Z,5.00
2023-02-13T20:34:02.575Z,4.90
2023-02-13T20:36:31.320Z,5.00
2023-02-13T20:39:01.132Z,5.00
2023-02-13T20:41:31.295Z,5.00
2023-02-13T20:44:01.145Z,4.90
2023-02-13T20:46:32.987Z,4.90
2023-02-13T20:49:00.365Z,4.90
2023-02-13T20:51:28.006Z,4.90
2023-02-13T20:53:56.414Z,4.90
2023-02-13T20:56:25.364Z,5.00
2023-02-13T20:58:55.553Z,4.90
2023-02-13T21:01:35.330Z,4.90
2023-02-13T21:04:02.976Z,4.90
2023-02-13T21:06:36.819Z,4.90
2023-02-13T21:09:06.053Z,4.80
2023-02-13T21:11:34.516Z,4.80
2023-02-13T21:14:02.570Z,4.80
2023-02-13T21:16:34.996Z,4.80
2023-02-13T21:19:09.164Z,4.80
2023-02-13T21:21:37.584Z,4.90
2023-02-13T21:24:08.536Z,4.80
2023-02-13T21:26:36.515Z,4.80
2023-02-13T21:29:04.154Z,4.80
2023-02-13T21:31:34.820Z,4.80
2023-02-13T21:34:08.399Z,4.80
2023-02-13T21:36:36.826Z,4.70
2023-02-13T21:39:08.924Z,4.80
2023-02-13T21:41:37.409Z,4.70
2023-02-13T21:44:04.810Z,5.00
2023-02-13T21:46:33.569Z,5.00
2023-02-13T21:49:05.455Z,4.90
2023-02-13T21:51:34.825Z,4.80
2023-02-13T21:54:04.120Z,4.80
2023-02-13T21:56:36.760Z,4.70
2023-02-13T21:59:04.658Z,4.70
2023-02-13T22:01:46.051Z,4.70
2023-02-13T22:04:13.467Z,4.80
2023-02-13T22:06:41.506Z,4.80
2023-02-13T22:09:14.131Z,4.70
2023-02-13T22:11:42.048Z,4.60
2023-02-13T22:14:13.388Z,4.70
2023-02-13T22:16:42.548Z,4.70
2023-02-13T22:19:13.465Z,4.70
2023-02-13T22:21:41.128Z,4.70
2023-02-13T22:24:08.536Z,4.70
2023-02-13T22:26:37.878Z,4.70
2023-02-13T22:29:11.003Z,4.70
2023-02-13T22:31:38.572Z,4.60
2023-02-13T22:34:06.390Z,4.60
2023-02-13T22:36:35.303Z,4.60
2023-02-13T22:39:02.629Z,4.60
2023-02-13T22:41:30.084Z,4.70
2023-02-13T22:43:57.417Z,4.60
2023-02-13T22:46:27.506Z,4.60
2023-02-13T22:48:55.539Z,4.70
2023-02-13T22:51:29.771Z,4.70
2023-02-13T22:53:58.378Z,4.70
2023-02-13T22:56:27.536Z,4.60
2023-02-13T22:58:55.370Z,4.60
2023-02-13T23:01:24.775Z,4.60
2023-02-13T23:03:52.287Z,4.60
2023-02-13T23:06:19.852Z,4.60
2023-02-13T23:08:52.474Z,4.50
2023-02-13T23:11:40.815Z,4.60
2023-02-13T23:14:08.533Z,4.50
2023-02-13T23:16:56.127Z,4.40
2023-02-13T23:19:25.507Z,4.40
2023-02-13T23:21:52.910Z,4.40
2023-02-13T23:24:20.162Z,4.40
2023-02-13T23:26:47.496Z,4.40
2023-02-13T23:29:14.848Z,4.40
2023-02-13T23:31:42.335Z,4.40
2023-02-13T23:34:09.747Z,4.40
2023-02-13T23:36:37.066Z,4.50
2023-02-13T23:39:04.443Z,4.50
2023-02-13T23:41:31.785Z,4.60
2023-02-13T23:43:59.151Z,4.60
2023-02-13T23:46:27.031Z,4.60
2023-02-13T23:48:54.352Z,4.50
2023-02-13T23:51:23.106Z,4.50
2023-02-13T23:53:53.180Z,4.50
2023-02-13T23:56:21.256Z,4.50
2023-02-13T23:58:48.661Z,4.60
